Time;durP1;ratioP1;P1;durP2;ratioP2;P2;SDS_P1;SDS_P2;PMS_P1;PMS_P2;Temp;Humidity;BMP_temperature;BMP_pressure;BME280_temperature;BME280_humidity;BME280_pressure;Samples;Min_cycle;Max_cycle;Signal;HPM_P1;HPM_P2
2023/12/21 00:01:45;;;;;;;16.25;11.20;;;;;;;-0.27;100.00;97449.00;1223470;75;2938821;-64
2023/12/21 00:04:17;;;;;;;16.00;12.00;;;;;;;-0.24;100.00;97443.56;1224375;75;2939268;-65
2023/12/21 00:06:50;;;;;;;18.65;12.30;;;;;;;-0.44;100.00;97432.72;1223584;75;2939989;-68
2023/12/21 00:09:23;;;;;;;20.10;13.55;;;;;;;-0.31;100.00;97427.53;1224295;75;2913133;-66
2023/12/21 00:11:59;;;;;;;13.85;10.90;;;;;;;-0.32;100.00;97434.06;1221139;75;3087305;-65
2023/12/21 00:14:32;;;;;;;21.25;13.75;;;;;;;-0.44;100.00;97427.34;1223888;75;2940193;-68
2023/12/21 00:17:05;;;;;;;15.65;11.20;;;;;;;-0.14;100.00;97428.44;1224722;75;2920023;-67
2023/12/21 00:19:38;;;;;;;16.25;12.00;;;;;;;-0.21;100.00;97409.72;1222593;83;2924618;-67
2023/12/21 00:22:11;;;;;;;14.25;10.70;;;;;;;-0.19;100.00;97414.66;1224301;75;2940093;-66
2023/12/21 00:24:44;;;;;;;16.05;11.75;;;;;;;-0.34;100.00;97409.50;1225149;75;2938553;-68
2023/12/21 00:27:19;;;;;;;17.15;12.20;;;;;;;-0.55;100.00;97409.88;1225010;75;2918239;-69
2023/12/21 00:29:52;;;;;;;18.45;13.05;;;;;;;-0.49;100.00;97397.47;1224599;75;2921061;-66
2023/12/21 00:32:25;;;;;;;15.95;11.75;;;;;;;-0.39;100.00;97393.09;1224101;75;2925255;-65
2023/12/21 00:34:58;;;;;;;14.75;10.55;;;;;;;-0.37;100.00;97398.81;1223550;75;2920314;-66
2023/12/21 00:37:36;;;;;;;15.25;11.20;;;;;;;-0.60;100.00;97421.84;1224644;75;2921337;-68
2023/12/21 00:40:10;;;;;;;16.80;11.20;;;;;;;-0.41;100.00;97408.88;1224021;75;2951423;-66
2023/12/21 00:42:46;;;;;;;14.85;11.10;;;;;;;-0.46;100.00;97394.75;1224974;75;2900188;-64
2023/12/21 00:45:19;;;;;;;17.90;12.95;;;;;;;-0.52;100.00;97404.41;1223995;75;2931049;-66
2023/12/21 00:47:52;;;;;;;22.20;16.05;;;;;;;-0.73;100.00;97396.69;1224478;75;2923099;-67
2023/12/21 00:50:25;;;;;;;20.65;15.05;;;;;;;-0.62;100.00;97402.66;1225220;75;2923231;-65
2023/12/21 00:52:57;;;;;;;19.10;13.60;;;;;;;-0.65;100.00;97416.91;1224300;75;2920480;-66
2023/12/21 00:55:30;;;;;;;22.10;16.00;;;;;;;-0.72;100.00;97411.63;1224438;75;2922069;-67
2023/12/21 00:58:06;;;;;;;20.95;15.00;;;;;;;-0.82;100.00;97399.09;1224680;75;2951850;-67
2023/12/21 01:00:39;;;;;;;19.00;13.65;;;;;;;-0.77;100.00;97394.06;1223991;75;2925767;-65
2023/12/21 01:03:12;;;;;;;15.35;11.30;;;;;;;-0.75;100.00;97386.31;1223797;75;2941557;-66
2023/12/21 01:05:45;;;;;;;14.05;10.40;;;;;;;-0.63;100.00;97386.94;1225198;75;2921431;-66
2023/12/21 01:08:18;;;;;;;16.05;10.95;;;;;;;-0.89;100.00;97381.94;1224890;75;2923146;-64
2023/12/21 01:10:50;;;;;;;13.30;9.95;;;;;;;-0.86;100.00;97391.84;1223863;75;2929948;-67
2023/12/21 01:13:26;;;;;;;19.90;13.40;;;;;;;-0.95;100.00;97372.78;1224766;75;2923115;-66
2023/12/21 01:15:59;;;;;;;19.30;12.70;;;;;;;-0.91;100.00;97359.31;1222480;75;2938145;-63
2023/12/21 01:18:31;;;;;;;21.45;15.60;;;;;;;-1.52;100.00;97368.16;1221468;83;3000289;-67
2023/12/21 01:21:04;;;;;;;22.10;16.85;;;;;;;-1.27;100.00;97357.13;1224005;75;2924463;-66
2023/12/21 01:23:37;;;;;;;19.70;13.55;;;;;;;-1.00;100.00;97365.19;1224532;75;2910367;-66
2023/12/21 01:26:10;;;;;;;15.50;11.85;;;;;;;-0.90;100.00;97363.53;1223583;75;2924992;-66
2023/12/21 01:28:45;;;;;;;14.50;10.30;;;;;;;-1.09;100.00;97375.66;1223156;75;2918683;-66
2023/12/21 01:31:18;;;;;;;16.15;11.40;;;;;;;-1.27;100.00;97375.91;1222625;75;2922542;-67
2023/12/21 01:33:51;;;;;;;22.00;15.20;;;;;;;-1.29;100.00;97370.19;1221651;75;3032909;-66
2023/12/21 01:36:25;;;;;;;16.75;12.55;;;;;;;-1.05;100.00;97370.25;1224399;75;2917549;-65
2023/12/21 01:38:58;;;;;;;18.00;13.60;;;;;;;-1.41;100.00;97366.13;1224225;75;2915683;-64
2023/12/21 01:41:30;;;;;;;22.10;15.00;;;;;;;-1.26;100.00;97384.72;1223564;75;2932054;-65
2023/12/21 01:44:06;;;;;;;22.55;15.95;;;;;;;-1.29;100.00;97368.25;1224362;75;2921767;-65
2023/12/21 01:46:39;;;;;;;24.55;17.20;;;;;;;-1.08;100.00;97366.47;1224186;75;2918150;-66
2023/12/21 01:49:12;;;;;;;20.20;14.60;;;;;;;-1.02;100.00;97359.47;1223729;75;2920832;-69
2023/12/21 01:51:46;;;;;;;17.60;14.10;;;;;;;-1.12;100.00;97352.31;1224975;75;2917966;-64
2023/12/21 01:54:19;;;;;;;17.90;12.30;;;;;;;-1.05;100.00;97349.53;1222917;75;2923607;-65
2023/12/21 01:56:52;;;;;;;21.90;15.05;;;;;;;-1.25;100.00;97351.34;1223827;83;2927379;-65
2023/12/21 01:59:28;;;;;;;19.35;13.40;;;;;;;-1.29;100.00;97338.72;1224970;75;2921747;-65
2023/12/21 02:02:01;;;;;;;19.75;13.05;;;;;;;-1.25;100.00;97338.69;1224479;75;2923001;-63
2023/12/21 02:04:34;;;;;;;17.25;11.80;;;;;;;-1.27;100.00;97341.00;1224593;75;2916768;-67
2023/12/21 02:07:07;;;;;;;18.30;13.45;;;;;;;-1.33;100.00;97327.25;1224653;75;2923791;-65
2023/12/21 02:09:40;;;;;;;15.80;12.15;;;;;;;-1.11;100.00;97343.09;1224244;75;2921997;-65
2023/12/21 02:12:13;;;;;;;13.65;11.10;;;;;;;-1.22;100.00;97345.94;1223998;75;2932022;-69
2023/12/21 02:14:48;;;;;;;15.85;10.80;;;;;;;-1.33;100.00;97339.94;1225080;75;2933891;-65
2023/12/21 02:17:25;;;;;;;13.10;10.60;;;;;;;-1.21;100.00;97333.25;1223195;75;2931510;-67
2023/12/21 02:19:58;;;;;;;15.05;10.40;;;;;;;-1.22;100.00;97319.06;1224737;75;2912874;-65
2023/12/21 02:22:32;;;;;;;15.15;11.00;;;;;;;-1.17;100.00;97317.84;1223918;75;2924292;-65
2023/12/21 02:25:09;;;;;;;13.00;9.90;;;;;;;-1.17;100.00;97301.75;1224684;75;2927442;-67
2023/12/21 02:27:42;;;;;;;16.85;11.85;;;;;;;-1.24;100.00;97315.28;1223635;75;2924859;-66
2023/12/21 02:30:16;;;;;;;21.00;14.20;;;;;;;-1.44;100.00;97305.19;1224863;75;2918613;-64
2023/12/21 02:32:49;;;;;;;19.70;13.55;;;;;;;-1.24;100.00;97310.66;1223859;75;2893112;-65
2023/12/21 02:35:22;;;;;;;19.75;13.60;;;;;;;-1.22;100.00;97310.25;1224550;75;2923848;-65
2023/12/21 02:37:54;;;;;;;15.45;11.65;;;;;;;-1.03;100.00;97306.91;1224430;75;2925311;-66
2023/12/21 02:40:30;;;;;;;13.25;10.00;;;;;;;-1.20;100.00;97300.63;1224335;75;2920088;-69
2023/12/21 02:43:03;;;;;;;15.55;11.95;;;;;;;-1.23;100.00;97301.41;1223340;75;2948430;-69
2023/12/21 02:45:36;;;;;;;15.05;11.05;;;;;;;-1.23;100.00;97316.78;1223735;75;2925165;-68
2023/12/21 02:48:10;;;;;;;19.45;14.10;;;;;;;-1.51;100.00;97316.00;1223761;75;2931442;-69
2023/12/21 02:50:43;;;;;;;20.55;14.55;;;;;;;-1.63;100.00;97303.88;1223494;75;2927314;-70
2023/12/21 02:53:16;;;;;;;17.65;12.65;;;;;;;-1.39;100.00;97299.34;1222182;75;2942709;-66
2023/12/21 02:55:51;;;;;;;16.60;12.20;;;;;;;-1.20;100.00;97315.97;1224005;75;2921533;-65
2023/12/21 02:58:24;;;;;;;13.90;9.80;;;;;;;-1.29;100.00;97319.91;1224560;75;2921546;-74
2023/12/21 03:00:57;;;;;;;12.80;9.95;;;;;;;-1.34;100.00;97311.56;1224202;75;2935249;-67
2023/12/21 03:03:29;;;;;;;13.40;9.80;;;;;;;-1.12;100.00;97302.03;1223858;75;2921750;-66
2023/12/21 03:06:03;;;;;;;14.00;10.45;;;;;;;-1.17;100.00;97299.06;1223350;75;2931642;-66
2023/12/21 03:08:35;;;;;;;11.60;8.85;;;;;;;-1.09;100.00;97311.97;1225432;75;2924309;-64
2023/12/21 03:11:11;;;;;;;14.20;9.35;;;;;;;-1.18;100.00;97314.41;1224085;75;2918476;-68
2023/12/21 03:13:44;;;;;;;14.55;11.45;;;;;;;-1.31;100.00;97319.56;1224756;75;2923960;-65
2023/12/21 03:16:17;;;;;;;17.50;12.40;;;;;;;-1.24;100.00;97307.22;1223432;75;2931179;-66
2023/12/21 03:18:49;;;;;;;15.40;11.50;;;;;;;-1.14;100.00;97309.72;1224168;75;2923772;-67
2023/12/21 03:21:22;;;;;;;13.50;9.95;;;;;;;-1.11;100.00;97317.00;1224046;75;2919982;-67
2023/12/21 03:23:55;;;;;;;14.45;10.25;;;;;;;-1.24;100.00;97315.28;1224606;75;2926394;-66
2023/12/21 03:26:31;;;;;;;19.20;13.95;;;;;;;-1.21;100.00;97301.78;1224116;75;2927518;-67
2023/12/21 03:29:04;;;;;;;18.70;12.95;;;;;;;-1.09;100.00;97287.78;1223837;75;2930035;-66
2023/12/21 03:31:37;;;;;;;16.05;11.75;;;;;;;-0.90;100.00;97288.28;1224528;75;2924129;-65
2023/12/21 03:34:10;;;;;;;17.70;11.95;;;;;;;-0.95;100.00;97291.44;1224273;75;2926764;-66
2023/12/21 03:36:43;;;;;;;15.90;11.60;;;;;;;-0.84;100.00;97283.19;1224358;75;2921457;-66
2023/12/21 03:39:16;;;;;;;21.25;13.30;;;;;;;-0.92;100.00;97277.19;1224156;75;2916693;-65
2023/12/21 03:41:51;;;;;;;15.90;12.10;;;;;;;-0.97;100.00;97286.47;1224605;75;2864950;-66
2023/12/21 03:44:25;;;;;;;14.85;11.85;;;;;;;-0.81;100.00;97296.59;1224263;75;2921740;-65
2023/12/21 03:46:57;;;;;;;14.80;10.65;;;;;;;-0.74;100.00;97288.41;1223948;75;2925720;-66
2023/12/21 03:49:31;;;;;;;14.30;10.15;;;;;;;-0.90;100.00;97288.28;1223350;75;2929736;-65
2023/12/21 03:52:04;;;;;;;13.45;9.70;;;;;;;-0.78;100.00;97279.63;1223905;75;2923699;-68
2023/12/21 03:54:37;;;;;;;12.30;8.80;;;;;;;-0.69;100.00;97273.75;1223780;75;2933469;-66
2023/12/21 03:57:12;;;;;;;11.05;8.15;;;;;;;-0.59;100.00;97259.34;1223445;75;2928084;-63
2023/12/21 03:59:45;;;;;;;14.40;11.20;;;;;;;-1.04;100.00;97248.19;1224540;75;2920414;-64
2023/12/21 04:02:18;;;;;;;18.45;12.85;;;;;;;-0.94;100.00;97242.69;1223414;83;2927429;-66
2023/12/21 04:04:51;;;;;;;16.40;12.45;;;;;;;-0.87;100.00;97237.19;1222626;75;2933680;-66
2023/12/21 04:07:24;;;;;;;14.85;11.10;;;;;;;-0.74;100.00;97231.97;1222443;75;2926686;-69
2023/12/21 04:09:57;;;;;;;18.85;12.95;;;;;;;-1.00;100.00;97236.25;1222744;75;2919763;-66
2023/12/21 04:12:32;;;;;;;16.65;11.70;;;;;;;-0.76;100.00;97230.88;1221788;75;2932338;-64
2023/12/21 04:15:05;;;;;;;17.10;11.35;;;;;;;-0.83;100.00;97212.94;1224104;75;2925681;-65
2023/12/21 04:17:39;;;;;;;14.05;10.60;;;;;;;-0.69;100.00;97228.81;1223003;75;2932495;-66
2023/12/21 04:20:14;;;;;;;14.85;10.65;;;;;;;-0.81;100.00;97244.78;1222666;75;2953458;-67
2023/12/21 04:22:47;;;;;;;19.80;12.60;;;;;;;-0.90;100.00;97207.69;1221976;75;2966213;-65
2023/12/21 04:25:21;;;;;;;18.15;12.60;;;;;;;-0.89;100.00;97193.06;1223513;75;2931449;-66
2023/12/21 04:27:56;;;;;;;19.10;12.80;;;;;;;-0.92;100.00;97212.69;1197656;75;4805237;-66
2023/12/21 04:30:29;;;;;;;19.10;13.30;;;;;;;-0.83;100.00;97201.44;1222062;75;2934919;-65
2023/12/21 04:33:03;;;;;;;16.85;12.60;;;;;;;-0.87;100.00;97198.78;1220128;75;3044491;-66
2023/12/21 04:35:36;;;;;;;15.85;10.60;;;;;;;-0.67;100.00;97204.22;1223360;75;2924946;-69
2023/12/21 04:38:09;;;;;;;13.40;10.60;;;;;;;-0.62;100.00;97194.91;1223739;75;2924586;-64
2023/12/21 04:40:42;;;;;;;14.90;11.70;;;;;;;-0.84;100.00;97200.66;1222327;75;2941830;-66
2023/12/21 04:43:17;;;;;;;17.70;13.20;;;;;;;-0.98;100.00;97177.50;1224169;75;2924832;-65
2023/12/21 04:45:50;;;;;;;17.60;13.40;;;;;;;-0.87;100.00;97167.31;1223745;75;2930341;-66
2023/12/21 04:48:23;;;;;;;15.75;11.10;;;;;;;-0.78;100.00;97182.13;1223327;75;2924348;-66
2023/12/21 04:50:55;;;;;;;14.15;10.65;;;;;;;-0.82;100.00;97165.31;1224230;75;2925494;-64
2023/12/21 04:53:28;;;;;;;17.25;12.10;;;;;;;-0.89;100.00;97150.06;1223670;75;2929652;-65
2023/12/21 04:56:01;;;;;;;20.50;13.45;;;;;;;-0.96;100.00;97160.94;1223531;75;2932540;-66
2023/12/21 04:58:37;;;;;;;21.15;14.15;;;;;;;-1.02;100.00;97147.22;1223520;75;2925022;-65
2023/12/21 05:01:10;;;;;;;18.05;14.05;;;;;;;-0.73;100.00;97152.09;1222686;75;2927039;-65
2023/12/21 05:03:43;;;;;;;19.80;14.30;;;;;;;-1.00;100.00;97154.88;1223001;75;2921157;-66
2023/12/21 05:06:16;;;;;;;19.80;14.00;;;;;;;-1.07;100.00;97145.03;1224569;75;2921003;-67
2023/12/21 05:08:49;;;;;;;16.95;13.60;;;;;;;-0.92;100.00;97143.59;1223708;75;2923314;-68
2023/12/21 05:11:22;;;;;;;14.55;11.50;;;;;;;-0.88;100.00;97163.09;1221171;75;3051190;-68
2023/12/21 05:13:57;;;;;;;17.00;13.45;;;;;;;-1.18;100.00;97161.34;1224388;75;2925072;-67
2023/12/21 05:16:30;;;;;;;18.40;13.45;;;;;;;-1.09;100.00;97148.09;1222736;75;2927962;-65
2023/12/21 05:19:03;;;;;;;15.65;11.25;;;;;;;-0.94;100.00;97151.31;1224512;75;2931363;-67
2023/12/21 05:21:36;;;;;;;16.90;13.25;;;;;;;-1.06;100.00;97149.22;1224083;75;2925797;-69
2023/12/21 05:24:09;;;;;;;17.35;12.85;;;;;;;-1.04;100.00;97146.13;1222907;75;2929664;-66
2023/12/21 05:26:42;;;;;;;16.85;11.95;;;;;;;-0.95;100.00;97143.66;1223591;75;2930096;-67
2023/12/21 05:29:17;;;;;;;14.15;10.45;;;;;;;-0.93;100.00;97141.34;1223259;75;2923998;-65
2023/12/21 05:31:50;;;;;;;16.35;12.45;;;;;;;-1.04;100.00;97130.75;1223750;75;2923394;-66
2023/12/21 05:34:23;;;;;;;15.00;11.30;;;;;;;-1.01;100.00;97131.88;1223919;75;2936338;-66
2023/12/21 05:36:56;;;;;;;20.05;15.00;;;;;;;-1.27;100.00;97130.78;1223375;75;2933420;-66
2023/12/21 05:39:29;;;;;;;16.30;11.60;;;;;;;-1.10;100.00;97119.00;1222960;75;2925036;-69
2023/12/21 05:42:02;;;;;;;15.00;11.05;;;;;;;-1.14;100.00;97110.97;1222889;75;2930061;-67
2023/12/21 05:44:37;;;;;;;16.05;12.40;;;;;;;-1.14;100.00;97102.94;1223645;75;2928259;-65
2023/12/21 05:47:10;;;;;;;15.40;11.55;;;;;;;-1.17;100.00;97094.94;1223005;75;2928882;-67
2023/12/21 05:49:43;;;;;;;15.25;11.45;;;;;;;-1.29;100.00;97091.69;1223588;75;2925392;-65
2023/12/21 05:52:16;;;;;;;18.90;13.00;;;;;;;-1.45;100.00;97091.56;1223519;75;2922477;-65
2023/12/21 05:54:49;;;;;;;15.00;11.70;;;;;;;-1.36;100.00;97097.16;1222783;75;2938470;-68
2023/12/21 05:57:21;;;;;;;13.70;9.70;;;;;;;-1.34;100.00;97086.78;1223449;75;2929933;-66
2023/12/21 05:59:57;;;;;;;11.70;9.70;;;;;;;-1.46;100.00;97087.38;1222781;75;2922646;-66
2023/12/21 06:02:30;;;;;;;11.90;8.95;;;;;;;-1.55;100.00;97095.19;1223052;75;2921648;-68
2023/12/21 06:05:03;;;;;;;10.20;8.10;;;;;;;-1.59;100.00;97094.47;1223803;75;2929395;-67
2023/12/21 06:07:36;;;;;;;10.40;7.55;;;;;;;-1.58;100.00;97085.28;1223758;75;2921606;-65
2023/12/21 06:10:11;;;;;;;8.75;7.15;;;;;;;-1.64;100.00;97084.97;1223474;75;2927226;-68
2023/12/21 06:12:44;;;;;;;11.70;8.75;;;;;;;-1.73;100.00;97082.06;1224282;75;2909033;-65
2023/12/21 06:15:20;;;;;;;13.80;10.45;;;;;;;-1.68;100.00;97095.03;1224025;75;2937669;-64
2023/12/21 06:17:52;;;;;;;12.05;8.85;;;;;;;-1.70;100.00;97086.63;1223353;75;2923842;-69
2023/12/21 06:20:26;;;;;;;11.25;8.00;;;;;;;-1.76;100.00;97070.19;1224133;75;2917462;-66
2023/12/21 06:22:59;;;;;;;10.05;7.60;;;;;;;-1.72;100.00;97073.59;1223615;75;2935328;-67
2023/12/21 06:25:32;;;;;;;9.60;6.85;;;;;;;-1.75;100.00;97070.97;1223588;75;2932701;-66
2023/12/21 06:28:05;;;;;;;14.65;9.40;;;;;;;-1.78;100.00;97072.56;1224683;75;2923278;-67
2023/12/21 06:30:40;;;;;;;13.75;9.70;;;;;;;-1.81;100.00;97072.59;1223738;75;2923637;-66
2023/12/21 06:33:13;;;;;;;12.80;9.55;;;;;;;-1.91;100.00;97082.34;1224485;75;2929006;-68
2023/12/21 06:35:46;;;;;;;11.65;8.85;;;;;;;-1.87;100.00;97085.72;1224079;75;2923993;-65
2023/12/21 06:38:19;;;;;;;12.30;9.75;;;;;;;-2.00;100.00;97082.09;1223675;75;2928364;-68
2023/12/21 06:40:53;;;;;;;22.95;15.75;;;;;;;-2.07;100.00;97082.94;1224067;75;2927908;-66
2023/12/21 06:43:26;;;;;;;19.95;13.50;;;;;;;-1.88;100.00;97061.97;1223333;75;2930751;-66
2023/12/21 06:46:02;;;;;;;13.65;10.55;;;;;;;-1.81;100.00;97059.94;1223284;75;2930151;-66
2023/12/21 06:48:35;;;;;;;17.30;12.15;;;;;;;-1.83;100.00;97062.25;1224589;75;2925994;-68
2023/12/21 06:51:11;;;;;;;13.25;9.95;;;;;;;-1.79;100.00;97048.81;1223519;75;2930056;-69
2023/12/21 06:53:43;;;;;;;13.75;10.05;;;;;;;-1.77;100.00;97052.59;1224379;75;2921355;-65
2023/12/21 06:56:17;;;;;;;15.05;10.50;;;;;;;-1.84;100.00;97054.66;1224331;75;2921698;-66
2023/12/21 06:58:50;;;;;;;17.00;11.15;;;;;;;-1.97;100.00;97055.22;1222732;75;2932681;-67
2023/12/21 07:01:28;;;;;;;11.55;9.45;;;;;;;-1.80;100.00;97056.09;1223378;75;2936798;-70
2023/12/21 07:04:02;;;;;;;11.50;8.25;;;;;;;-1.84;100.00;97060.00;1223845;75;2935103;-67
2023/12/21 07:06:35;;;;;;;12.85;10.10;;;;;;;-1.95;100.00;97042.16;1221760;75;2946188;-66
2023/12/21 07:09:09;;;;;;;12.00;9.25;;;;;;;-1.89;100.00;97045.13;1223490;83;2936078;-67
2023/12/21 07:11:42;;;;;;;12.10;8.75;;;;;;;-1.90;100.00;97049.00;1223202;75;2927890;-67
2023/12/21 07:14:14;;;;;;;17.65;12.75;;;;;;;-1.91;100.00;97052.81;1223566;75;2931995;-67
2023/12/21 07:16:50;;;;;;;16.90;11.75;;;;;;;-1.80;100.00;97050.75;1220402;75;3079358;-67
2023/12/21 07:19:23;;;;;;;16.45;11.50;;;;;;;-1.86;100.00;97044.31;1213582;75;2925704;-67
2023/12/21 07:21:56;;;;;;;15.20;11.30;;;;;;;-1.73;100.00;97045.25;1219293;75;2929324;-68
2023/12/21 07:24:29;;;;;;;12.60;9.55;;;;;;;-1.63;100.00;97040.13;1217690;75;2925770;-68
2023/12/21 07:27:02;;;;;;;10.95;8.55;;;;;;;-1.54;100.00;97041.13;1221876;75;2923587;-68
2023/12/21 07:29:35;;;;;;;12.15;9.20;;;;;;;-1.43;100.00;97035.53;1220425;75;2940479;-67
2023/12/21 07:32:11;;;;;;;10.95;9.00;;;;;;;-1.54;100.00;97037.66;1223442;75;2939200;-66
2023/12/21 07:34:44;;;;;;;11.95;9.85;;;;;;;-1.58;100.00;97023.56;1221927;75;2922982;-68
2023/12/21 07:37:17;;;;;;;11.80;8.00;;;;;;;-1.49;100.00;97018.41;1224265;75;2926043;-65
2023/12/21 07:39:50;;;;;;;12.95;8.75;;;;;;;-1.34;100.00;97021.59;1221208;75;2925698;-67
2023/12/21 07:42:22;;;;;;;8.70;7.05;;;;;;;-1.27;100.00;97031.41;1223932;75;2926428;-67
2023/12/21 07:44:55;;;;;;;9.20;6.95;;;;;;;-1.26;100.00;97025.66;1222779;75;2922923;-68
2023/12/21 07:47:31;;;;;;;10.70;7.85;;;;;;;-0.53;100.00;97014.97;1222249;75;2919971;-68
2023/12/21 07:50:04;;;;;;;18.30;11.85;;;;;;;-0.20;100.00;97007.72;1223881;75;2920144;-66
2023/12/21 07:52:37;;;;;;;13.80;10.60;;;;;;;0.62;100.00;96992.25;1222932;75;2918287;-67
2023/12/21 07:55:11;;;;;;;12.15;9.50;;;;;;;0.46;100.00;96999.59;1221488;75;2934503;-65
2023/12/21 07:57:44;;;;;;;10.50;7.95;;;;;;;0.59;100.00;96992.34;1222921;75;2933570;-70
2023/12/21 08:00:18;;;;;;;11.20;8.55;;;;;;;0.49;100.00;96994.13;1223067;75;2926352;-70
2023/12/21 08:02:54;;;;;;;12.65;10.40;;;;;;;-0.07;100.00;96976.31;1220837;75;2960980;-66
2023/12/21 08:05:27;;;;;;;13.85;10.80;;;;;;;0.24;100.00;96975.94;1223128;75;2929001;-66
2023/12/21 08:08:00;;;;;;;11.85;9.20;;;;;;;0.59;100.00;96984.25;1220915;75;2935382;-67
2023/12/21 08:10:33;;;;;;;11.55;8.90;;;;;;;0.60;100.00;96988.47;1223537;75;2932181;-66
2023/12/21 08:13:07;;;;;;;12.95;9.40;;;;;;;0.81;100.00;96987.13;1223708;75;2924856;-67
2023/12/21 08:15:39;;;;;;;8.95;7.55;;;;;;;0.87;100.00;96985.44;1222615;75;2934167;-68
2023/12/21 08:18:16;;;;;;;9.85;8.20;;;;;;;0.97;100.00;96992.47;1222660;75;2927904;-71
2023/12/21 08:20:51;;;;;;;10.30;8.35;;;;;;;0.93;100.00;96989.09;1223517;75;2922891;-68
2023/12/21 08:23:24;;;;;;;11.30;8.60;;;;;;;1.25;100.00;96995.53;1224291;75;2927688;-67
2023/12/21 08:25:56;;;;;;;10.40;7.60;;;;;;;1.45;100.00;96979.91;1223295;75;2914058;-69
2023/12/21 08:28:30;;;;;;;13.60;10.35;;;;;;;1.09;100.00;96987.53;1222606;75;2971971;-68
2023/12/21 08:31:03;;;;;;;21.15;15.15;;;;;;;1.08;100.00;96980.63;1223863;75;2924416;-67
2023/12/21 08:33:39;;;;;;;23.40;16.55;;;;;;;1.32;100.00;96973.00;1224654;75;2926542;-66
2023/12/21 08:36:12;;;;;;;23.05;17.70;;;;;;;1.34;100.00;96973.34;1223184;75;2932312;-68
2023/12/21 08:38:45;;;;;;;21.05;15.60;;;;;;;2.32;100.00;96964.47;1223647;75;2919613;-67
2023/12/21 08:41:18;;;;;;;18.15;13.75;;;;;;;2.48;100.00;96967.03;1223539;75;2926003;-67
2023/12/21 08:43:51;;;;;;;17.30;13.20;;;;;;;2.47;100.00;96972.84;1222851;75;2931796;-66
2023/12/21 08:46:24;;;;;;;20.10;15.50;;;;;;;2.20;100.00;96966.03;1224037;75;2919007;-69
2023/12/21 08:48:59;;;;;;;16.95;12.85;;;;;;;2.49;100.00;96973.91;1221079;75;3017859;-65
2023/12/21 08:51:32;;;;;;;15.50;12.00;;;;;;;2.33;100.00;96942.44;1223492;75;2932335;-68
2023/12/21 08:54:05;;;;;;;13.90;9.85;;;;;;;2.50;100.00;96945.72;1224319;75;2929958;-67
2023/12/21 08:56:38;;;;;;;12.65;9.80;;;;;;;2.25;100.00;96953.91;1223359;75;2932516;-67
2023/12/21 08:59:11;;;;;;;14.05;10.70;;;;;;;2.30;100.00;96961.44;1223566;75;2922706;-68
2023/12/21 09:01:43;;;;;;;12.20;10.10;;;;;;;2.18;100.00;96954.16;1224524;75;2927284;-66
2023/12/21 09:04:19;;;;;;;15.65;12.40;;;;;;;2.06;100.00;96953.75;1224395;75;2918571;-67
2023/12/21 09:06:52;;;;;;;25.80;16.80;;;;;;;1.41;100.00;96954.25;1222950;75;2926594;-67
2023/12/21 09:09:25;;;;;;;22.05;15.25;;;;;;;1.66;100.00;96948.84;1224211;75;2924461;-67
2023/12/21 09:11:57;;;;;;;23.30;16.35;;;;;;;1.67;100.00;96949.59;1223639;83;2916460;-70
2023/12/21 09:14:30;;;;;;;22.15;15.65;;;;;;;1.56;100.00;96928.34;1223925;75;2925292;-66
2023/12/21 09:17:03;;;;;;;24.80;17.15;;;;;;;1.45;100.00;96925.22;1223090;75;2923303;-66
2023/12/21 09:19:39;;;;;;;20.80;14.90;;;;;;;1.97;100.00;96899.66;1224162;75;2926374;-67
2023/12/21 09:22:12;;;;;;;22.90;16.20;;;;;;;1.73;100.00;96912.78;1223264;75;2927983;-68
2023/12/21 09:24:45;;;;;;;20.15;15.70;;;;;;;2.17;100.00;96907.50;1224135;75;2922634;-67
2023/12/21 09:27:18;;;;;;;20.35;15.45;;;;;;;2.06;100.00;96907.09;1223084;75;2932505;-68
2023/12/21 09:29:51;;;;;;;22.10;15.25;;;;;;;2.17;100.00;96893.25;1223581;75;2921441;-67
2023/12/21 09:32:23;;;;;;;16.05;12.95;;;;;;;2.47;100.00;96889.09;1223272;75;2946348;-67
2023/12/21 09:34:59;;;;;;;17.80;12.70;;;;;;;2.67;100.00;96862.53;1224285;75;2920501;-67
2023/12/21 09:37:32;;;;;;;17.05;12.40;;;;;;;2.75;100.00;96860.31;1222776;75;2940072;-67
2023/12/21 09:40:06;;;;;;;15.60;12.80;;;;;;;2.93;100.00;96852.28;1224186;75;2931667;-67
2023/12/21 09:42:46;;;;;;;15.25;11.35;;;;;;;3.08;100.00;96841.69;1223805;75;2924548;-69
2023/12/21 09:45:20;;;;;;;17.40;13.55;;;;;;;3.33;100.00;96839.97;1224916;75;2927700;-67
2023/12/21 09:47:54;;;;;;;15.60;10.70;;;;;;;4.26;100.00;96836.88;1224093;75;2922494;-68
2023/12/21 09:50:31;;;;;;;13.20;9.95;;;;;;;4.56;100.00;96823.56;1224567;75;2933521;-67
2023/12/21 09:53:06;;;;;;;17.25;11.80;;;;;;;4.21;100.00;96813.13;1223254;75;2942133;-68
2023/12/21 09:55:40;;;;;;;16.45;11.30;;;;;;;4.72;100.00;96798.09;1223134;75;2926338;-68
2023/12/21 09:58:14;;;;;;;13.80;9.55;;;;;;;4.67;100.00;96796.00;1221396;75;3008253;-68
2023/12/21 10:00:47;;;;;;;14.05;10.05;;;;;;;4.52;100.00;96800.56;1224472;75;2906585;-68
2023/12/21 10:03:20;;;;;;;15.55;11.90;;;;;;;4.58;100.00;96793.31;1222403;75;2925932;-69
2023/12/21 10:05:55;;;;;;;14.00;10.15;;;;;;;5.06;100.00;96793.44;1223096;75;2944802;-67
2023/12/21 10:08:28;;;;;;;10.90;7.95;;;;;;;5.04;100.00;96795.84;1222072;75;2930628;-69
2023/12/21 10:11:02;;;;;;;9.60;6.95;;;;;;;5.28;100.00;96793.91;1223796;75;2934977;-65
2023/12/21 10:13:37;;;;;;;9.30;6.60;;;;;;;5.28;100.00;96785.78;1224108;75;2920434;-67
2023/12/21 10:16:10;;;;;;;7.45;5.75;;;;;;;5.13;99.91;96761.28;1223301;75;2919828;-67
2023/12/21 10:18:43;;;;;;;11.75;8.70;;;;;;;4.62;100.00;96748.56;1223019;75;2919374;-67
2023/12/21 10:21:21;;;;;;;10.70;7.85;;;;;;;5.03;100.00;96749.00;1223885;75;2920809;-68
2023/12/21 10:23:56;;;;;;;10.95;8.45;;;;;;;5.01;100.00;96737.84;1223766;75;2925013;-70
2023/12/21 10:26:29;;;;;;;11.05;7.55;;;;;;;5.33;100.00;96721.97;1222448;75;2921240;-69
2023/12/21 10:29:01;;;;;;;10.65;7.95;;;;;;;5.22;100.00;96722.50;1223752;75;2922392;-68
2023/12/21 10:31:34;;;;;;;18.45;10.55;;;;;;;4.93;100.00;96698.72;1223525;75;2919792;-68
2023/12/21 10:34:09;;;;;;;16.60;10.80;;;;;;;5.51;100.00;96694.69;1224326;75;2920022;-68
2023/12/21 10:36:46;;;;;;;22.15;16.35;;;;;;;4.99;100.00;96693.41;1222017;75;2937297;-66
2023/12/21 10:39:20;;;;;;;22.05;16.30;;;;;;;5.74;99.25;96682.28;1222255;75;2929500;-66
2023/12/21 10:41:53;;;;;;;18.25;13.60;;;;;;;6.10;94.87;96669.56;1222369;75;2933614;-66
2023/12/21 10:44:27;;;;;;;16.05;12.30;;;;;;;6.09;91.29;96667.34;1222907;75;2926135;-66
2023/12/21 10:47:01;;;;;;;13.25;10.65;;;;;;;6.08;91.47;96655.69;1221673;67;2932745;-67
2023/12/21 10:49:34;;;;;;;14.75;10.95;;;;;;;5.93;92.88;96650.25;1223402;75;2919256;-67
2023/12/21 10:52:10;;;;;;;15.20;10.70;;;;;;;5.75;94.73;96651.19;1223465;75;2928856;-69
2023/12/21 10:54:44;;;;;;;12.85;9.60;;;;;;;6.02;93.17;96637.84;1223891;75;2919915;-67
2023/12/21 10:57:19;;;;;;;11.20;8.65;;;;;;;6.49;94.14;96631.34;1223531;75;2921689;-67
2023/12/21 10:59:52;;;;;;;10.95;8.05;;;;;;;6.49;93.02;96630.63;1223458;75;2923349;-66
2023/12/21 11:02:28;;;;;;;8.90;6.60;;;;;;;6.44;94.42;96625.84;1224259;75;2919652;-70
2023/12/21 11:05:01;;;;;;;9.25;7.05;;;;;;;6.34;94.17;96625.97;1224215;75;2925701;-68
2023/12/21 11:07:37;;;;;;;12.30;8.90;;;;;;;5.88;95.29;96612.88;1223213;75;2916178;-67
2023/12/21 11:10:11;;;;;;;13.15;8.75;;;;;;;6.22;95.05;96605.28;1223264;75;2922718;-67
2023/12/21 11:12:44;;;;;;;10.95;8.10;;;;;;;6.12;94.84;96585.63;1223494;75;2921498;-65
2023/12/21 11:15:18;;;;;;;9.80;7.10;;;;;;;6.21;92.24;96587.47;1223492;75;2918662;-66
2023/12/21 11:17:58;;;;;;;9.70;7.00;;;;;;;6.45;93.68;96570.28;1191257;75;5609319;-65
2023/12/21 11:20:36;;;;;;;8.70;6.05;;;;;;;6.53;95.37;96565.91;1223071;75;2976883;-67
2023/12/21 11:23:12;;;;;;;7.35;5.70;;;;;;;6.54;94.48;96562.72;1222853;75;2925351;-69
2023/12/21 11:25:45;;;;;;;10.70;7.50;;;;;;;6.29;97.01;96545.09;1224365;75;2921722;-68
2023/12/21 11:28:18;;;;;;;8.20;6.25;;;;;;;6.66;94.64;96539.13;1222940;75;2926073;-65